Manzanita, California
Current Conditions -  °F | °C
As of 9:53 AM on Monday 24 Nov 2014 (Local Time) from KOVE Reporting Station
Clear Clear  
Wind Chill: 49°   Ceiling: Unl
Heat Index: 49°   Visibility: 10mi
Dew Point: 42°   Wind: 0mph
Humidity: 77%   Direction: NA
Pressure: 30.41"   Gusts: NA
Location:  39.3475°N, 121.759°W
Report Text: KOVE 241753Z AUTO 00000KT 10SM CLR 09/06 A3041 RMK AO2 SLP302 T00940056 10094 20039 51011
Loading
Personal Weather Stations






























Interactive Weather Map New forecast layout! Learn more

10-Day Weather Forecast

Advertisements
Track Severe Weather on mobile